createdAt,value
2023-05-24T00:00:00.630Z,17.81
2023-05-24T00:02:28.345Z,17.75
2023-05-24T00:04:55.674Z,17.81
2023-05-24T00:07:22.837Z,17.88
2023-05-24T00:09:49.932Z,17.92
2023-05-24T00:12:17.042Z,17.94
2023-05-24T00:14:44.139Z,17.95
2023-05-24T00:17:12.948Z,17.97
2023-05-24T00:19:40.340Z,17.96
2023-05-24T00:22:07.518Z,17.91
2023-05-24T00:24:34.710Z,17.93
2023-05-24T00:27:01.935Z,17.95
2023-05-24T00:29:31.476Z,17.92
2023-05-24T00:32:00.830Z,17.85
2023-05-24T00:34:28.143Z,17.86
2023-05-24T00:36:55.176Z,17.84
2023-05-24T00:39:22.253Z,17.84
2023-05-24T00:41:49.557Z,17.75
2023-05-24T00:44:16.626Z,17.74
2023-05-24T00:46:44.353Z,17.75
2023-05-24T00:49:11.730Z,17.65
2023-05-24T00:51:38.962Z,17.57
2023-05-24T00:54:07.034Z,17.65
2023-05-24T00:56:34.428Z,17.64
2023-05-24T00:59:03.618Z,17.57
2023-05-24T01:01:34.911Z,17.55
2023-05-24T01:04:02.777Z,17.44
2023-05-24T01:06:36.802Z,17.52
2023-05-24T01:09:35.214Z,17.47
2023-05-24T01:12:15.769Z,17.40
2023-05-24T01:15:01.776Z,17.37
2023-05-24T01:17:42.957Z,17.37
2023-05-24T01:20:13.675Z,17.26
2023-05-24T01:22:59.414Z,17.30
2023-05-24T01:25:59.652Z,17.29
2023-05-24T01:28:28.385Z,17.24
2023-05-24T01:30:56.270Z,17.31
2023-05-24T01:33:25.858Z,17.34
2023-05-24T01:35:53.018Z,17.33
2023-05-24T01:38:20.074Z,17.30
2023-05-24T01:40:50.774Z,17.28
2023-05-24T01:43:35.213Z,17.33
2023-05-24T01:46:07.016Z,17.32
2023-05-24T01:49:02.365Z,17.29
2023-05-24T01:51:39.013Z,17.36
2023-05-24T01:54:07.081Z,17.43
2023-05-24T01:56:35.972Z,17.35
2023-05-24T01:59:03.751Z,17.35
2023-05-24T02:01:32.032Z,17.37
2023-05-24T02:03:59.729Z,17.41
2023-05-24T02:06:26.918Z,17.35
2023-05-24T02:08:53.976Z,17.44
2023-05-24T02:11:23.104Z,17.41
2023-05-24T02:13:50.225Z,17.40
2023-05-24T02:16:18.346Z,17.26
2023-05-24T02:18:46.946Z,17.43
2023-05-24T02:21:14.202Z,17.47
2023-05-24T02:23:41.293Z,17.47
2023-05-24T02:26:11.639Z,17.46
2023-05-24T02:28:38.830Z,17.35
2023-05-24T02:31:06.449Z,17.47
2023-05-24T02:33:35.419Z,17.28
2023-05-24T02:36:02.625Z,17.27
2023-05-24T02:38:29.710Z,17.41
2023-05-24T02:40:56.730Z,17.53
2023-05-24T02:43:23.954Z,17.55
2023-05-24T02:45:51.077Z,17.55
2023-05-24T02:48:18.242Z,17.55
2023-05-24T02:50:45.490Z,17.55
2023-05-24T02:53:12.794Z,17.57
2023-05-24T02:55:40.098Z,17.60
2023-05-24T02:58:08.473Z,17.58
2023-05-24T03:00:36.249Z,17.58
2023-05-24T03:03:03.538Z,17.50
2023-05-24T03:05:30.840Z,17.46
2023-05-24T03:07:58.593Z,17.53
2023-05-24T03:10:25.882Z,17.52
2023-05-24T03:12:52.921Z,17.46
2023-05-24T03:15:20.220Z,17.33
2023-05-24T03:17:47.679Z,17.41
2023-05-24T03:20:16.062Z,17.38
2023-05-24T03:22:43.563Z,17.28
2023-05-24T03:25:10.691Z,17.36
2023-05-24T03:27:38.667Z,17.38
2023-05-24T03:30:06.870Z,17.33
2023-05-24T03:32:41.154Z,17.43
2023-05-24T03:35:12.176Z,17.41
2023-05-24T03:37:39.532Z,17.48
2023-05-24T03:40:08.996Z,17.52
2023-05-24T03:43:05.672Z,17.60
2023-05-24T03:45:53.679Z,17.65
2023-05-24T03:48:21.159Z,17.67
2023-05-24T03:50:50.292Z,17.70
2023-05-24T03:53:19.221Z,17.64
2023-05-24T03:55:47.673Z,17.71
2023-05-24T03:58:14.700Z,17.64
2023-05-24T04:00:41.964Z,17.66
2023-05-24T04:03:09.492Z,17.77
2023-05-24T04:05:36.562Z,17.78
2023-05-24T04:08:05.095Z,17.86
2023-05-24T04:10:32.274Z,17.97
2023-05-24T04:13:00.863Z,18.06
2023-05-24T04:15:27.995Z,18.15
2023-05-24T04:17:55.771Z,18.20
2023-05-24T04:20:27.803Z,18.30
2023-05-24T04:22:56.365Z,18.37
2023-05-24T04:25:23.834Z,18.40
2023-05-24T04:27:51.040Z,18.43
2023-05-24T04:30:18.439Z,18.43
2023-05-24T04:32:45.679Z,18.49
2023-05-24T04:35:13.559Z,18.52
2023-05-24T04:37:41.066Z,18.65
2023-05-24T04:40:08.850Z,18.75
2023-05-24T04:42:36.138Z,18.86
2023-05-24T04:45:03.562Z,18.89
2023-05-24T04:47:33.930Z,19.05
2023-05-24T04:50:01.107Z,19.15
2023-05-24T04:52:28.315Z,19.26
2023-05-24T04:54:55.757Z,19.33
2023-05-24T04:57:22.987Z,19.37
2023-05-24T04:59:50.172Z,19.36
2023-05-24T05:02:17.661Z,19.40
2023-05-24T05:04:44.840Z,19.16
2023-05-24T05:07:11.898Z,19.44
2023-05-24T05:09:39.044Z,19.49
2023-05-24T05:12:07.314Z,19.54
2023-05-24T05:14:34.518Z,19.68
2023-05-24T05:17:01.739Z,19.81
2023-05-24T05:19:28.965Z,19.90
2023-05-24T05:21:56.119Z,19.86
2023-05-24T05:24:23.353Z,19.89
2023-05-24T05:26:50.915Z,19.88
2023-05-24T05:29:17.990Z,19.90
2023-05-24T05:31:45.242Z,19.92
2023-05-24T05:34:12.402Z,19.86
2023-05-24T05:36:41.045Z,19.90
2023-05-24T05:39:11.992Z,19.71
2023-05-24T05:41:39.880Z,19.48
2023-05-24T05:44:06.955Z,19.62
2023-05-24T05:46:34.064Z,19.62
2023-05-24T05:49:01.236Z,19.41
2023-05-24T05:51:28.383Z,19.51
2023-05-24T05:53:55.614Z,19.62
2023-05-24T05:56:22.683Z,19.64
2023-05-24T05:58:49.936Z,19.70
2023-05-24T06:01:17.139Z,19.43
2023-05-24T06:03:45.208Z,19.76
2023-05-24T06:06:12.612Z,19.73
2023-05-24T06:08:41.033Z,19.66
2023-05-24T06:11:08.176Z,19.64
2023-05-24T06:13:35.206Z,19.62
2023-05-24T06:16:02.341Z,19.65
2023-05-24T06:18:30.688Z,19.52
2023-05-24T06:20:57.806Z,19.59
2023-05-24T06:23:24.941Z,19.58
2023-05-24T06:25:52.004Z,19.58
2023-05-24T06:28:19.132Z,19.58
2023-05-24T06:30:47.751Z,19.70
2023-05-24T06:33:14.961Z,19.73
2023-05-24T06:35:42.018Z,19.99
2023-05-24T06:38:09.160Z,20.12
2023-05-24T06:40:36.271Z,20.28
2023-05-24T06:43:04.352Z,20.42
2023-05-24T06:45:32.304Z,20.45
2023-05-24T06:47:59.600Z,20.62
2023-05-24T06:50:26.694Z,20.65
2023-05-24T06:52:53.864Z,20.68
2023-05-24T06:55:21.173Z,20.43
2023-05-24T06:57:48.226Z,20.35
2023-05-24T07:00:15.746Z,20.41
2023-05-24T07:02:43.033Z,20.41
2023-05-24T07:05:12.861Z,20.39
2023-05-24T07:07:43.991Z,20.33
2023-05-24T07:10:11.880Z,20.32
2023-05-24T07:12:39.049Z,20.37
2023-05-24T07:15:07.358Z,20.41
2023-05-24T07:17:34.828Z,20.33
2023-05-24T07:20:02.570Z,20.34
2023-05-24T07:22:32.718Z,20.37
2023-05-24T07:24:59.794Z,20.42
2023-05-24T07:27:26.863Z,20.47
2023-05-24T07:29:54.334Z,20.40
2023-05-24T07:32:21.747Z,20.49
2023-05-24T07:34:48.932Z,20.49
2023-05-24T07:37:16.832Z,20.53
2023-05-24T07:39:43.943Z,20.57
2023-05-24T07:42:11.029Z,20.61
2023-05-24T07:44:38.080Z,20.62
2023-05-24T07:47:05.314Z,20.65
2023-05-24T07:49:32.669Z,20.65
2023-05-24T07:52:00.374Z,20.49
2023-05-24T07:54:27.426Z,20.62
2023-05-24T07:56:54.518Z,20.35
2023-05-24T07:59:23.048Z,20.64
2023-05-24T08:01:50.708Z,20.77
2023-05-24T08:04:18.154Z,20.84
2023-05-24T08:06:46.893Z,20.93
2023-05-24T08:09:14.162Z,20.97
2023-05-24T08:11:41.958Z,21.03
2023-05-24T08:14:09.092Z,21.04
2023-05-24T08:16:36.255Z,21.08
2023-05-24T08:19:03.405Z,21.12
2023-05-24T08:21:30.687Z,21.11
2023-05-24T08:23:57.861Z,21.06
2023-05-24T08:26:24.944Z,21.16
2023-05-24T08:28:52.496Z,21.19
2023-05-24T08:31:19.564Z,21.28
2023-05-24T08:33:50.593Z,21.09
2023-05-24T08:36:18.518Z,21.17
2023-05-24T08:38:45.585Z,21.44
2023-05-24T08:41:12.657Z,21.45
2023-05-24T08:43:39.800Z,21.38
2023-05-24T08:46:08.001Z,21.42
2023-05-24T08:48:45.330Z,21.47
2023-05-24T08:51:16.950Z,21.43
2023-05-24T08:53:48.968Z,21.40
2023-05-24T08:56:18.062Z,21.51
2023-05-24T08:58:47.308Z,21.61
2023-05-24T09:01:17.016Z,21.58
2023-05-24T09:03:46.757Z,21.58
2023-05-24T09:06:16.968Z,21.69
2023-05-24T09:08:45.398Z,21.64
2023-05-24T09:11:14.797Z,21.73
2023-05-24T09:13:44.807Z,21.63
2023-05-24T09:16:12.526Z,21.68
2023-05-24T09:18:42.816Z,21.70
2023-05-24T09:21:12.027Z,21.74
2023-05-24T09:23:40.948Z,21.90
2023-05-24T09:26:09.835Z,21.80
2023-05-24T09:28:38.072Z,21.99
2023-05-24T09:31:07.920Z,22.16
2023-05-24T09:33:35.948Z,22.11
2023-05-24T09:36:07.322Z,22.17
2023-05-24T09:38:36.455Z,22.20
2023-05-24T09:41:08.864Z,22.13
2023-05-24T09:43:48.258Z,22.13
2023-05-24T09:46:22.346Z,22.17
2023-05-24T09:49:04.127Z,22.27
2023-05-24T09:51:31.207Z,22.39
2023-05-24T09:54:01.855Z,22.31
2023-05-24T09:56:30.272Z,22.61
2023-05-24T09:58:58.181Z,22.62
2023-05-24T10:01:26.986Z,22.68
2023-05-24T10:03:59.419Z,22.68
2023-05-24T10:06:26.869Z,22.78
2023-05-24T10:08:57.190Z,22.82
2023-05-24T10:11:24.494Z,22.81
2023-05-24T10:13:51.833Z,22.89
2023-05-24T10:16:18.980Z,22.81
2023-05-24T10:18:46.508Z,22.87
2023-05-24T10:21:14.133Z,22.86
2023-05-24T10:23:44.679Z,22.81
2023-05-24T10:26:12.805Z,23.08
2023-05-24T10:28:49.009Z,23.16
2023-05-24T10:31:22.942Z,23.12
2023-05-24T10:33:52.230Z,23.09
2023-05-24T10:36:20.052Z,23.26
2023-05-24T10:38:47.528Z,23.09
2023-05-24T10:41:14.614Z,23.19
2023-05-24T10:43:56.782Z,23.15
2023-05-24T10:46:33.498Z,23.17
2023-05-24T10:49:01.517Z,23.25
2023-05-24T10:51:39.594Z,23.19
2023-05-24T10:54:13.979Z,23.20
2023-05-24T10:56:43.290Z,23.11
2023-05-24T10:59:23.235Z,23.15
2023-05-24T11:02:01.073Z,23.15
2023-05-24T11:04:33.214Z,23.14
2023-05-24T11:07:11.684Z,23.19
2023-05-24T11:09:46.818Z,22.83
2023-05-24T11:12:19.110Z,23.18
2023-05-24T11:14:52.432Z,23.14
2023-05-24T11:17:22.878Z,23.16
2023-05-24T11:19:55.161Z,23.16
2023-05-24T11:22:25.673Z,23.07
2023-05-24T11:24:53.521Z,23.07
2023-05-24T11:27:21.108Z,22.98
2023-05-24T11:29:49.016Z,23.06
2023-05-24T11:32:19.032Z,22.97
2023-05-24T11:34:49.990Z,22.78
2023-05-24T11:37:18.838Z,22.95
2023-05-24T11:39:52.847Z,22.81
2023-05-24T11:42:22.328Z,22.83
2023-05-24T11:44:50.232Z,22.86
2023-05-24T11:47:20.506Z,22.86
2023-05-24T11:49:50.741Z,22.79
2023-05-24T11:52:17.782Z,22.84
2023-05-24T11:54:45.058Z,22.82
2023-05-24T11:57:12.956Z,22.74
2023-05-24T11:59:41.992Z,22.80
2023-05-24T12:02:09.287Z,22.69
2023-05-24T12:04:36.552Z,22.77
2023-05-24T12:07:03.869Z,22.75
2023-05-24T12:09:31.087Z,22.70
2023-05-24T12:11:58.817Z,22.70
2023-05-24T12:14:31.414Z,22.65
2023-05-24T12:16:59.839Z,22.62
2023-05-24T12:19:34.685Z,22.64
2023-05-24T12:22:07.510Z,22.63
2023-05-24T12:24:35.888Z,22.58
2023-05-24T12:27:08.894Z,22.57
2023-05-24T12:29:38.936Z,22.41
2023-05-24T12:32:12.477Z,22.47
2023-05-24T12:34:44.521Z,22.40
2023-05-24T12:37:13.655Z,22.45
2023-05-24T12:39:43.795Z,22.51
2023-05-24T12:42:16.227Z,22.46
2023-05-24T12:44:45.147Z,22.48
2023-05-24T12:47:12.760Z,22.54
2023-05-24T12:49:39.822Z,22.45
2023-05-24T12:52:07.149Z,22.56
2023-05-24T12:54:34.318Z,22.57
2023-05-24T12:57:03.383Z,22.59
2023-05-24T12:59:31.201Z,22.55
2023-05-24T13:01:58.340Z,22.65
2023-05-24T13:04:30.708Z,22.61
2023-05-24T13:06:57.998Z,22.60
2023-05-24T13:09:26.023Z,22.58
2023-05-24T13:11:54.350Z,22.67
2023-05-24T13:14:22.131Z,22.63
2023-05-24T13:16:49.779Z,22.64
2023-05-24T13:19:17.523Z,22.65
2023-05-24T13:21:45.675Z,22.65
2023-05-24T13:24:16.200Z,22.63
2023-05-24T13:26:45.176Z,22.59
2023-05-24T13:29:30.544Z,22.58
2023-05-24T13:32:00.065Z,22.63
2023-05-24T13:34:27.417Z,22.54
2023-05-24T13:36:55.064Z,22.53
2023-05-24T13:39:22.672Z,22.54
2023-05-24T13:41:50.249Z,22.60
2023-05-24T13:44:17.473Z,22.66
2023-05-24T13:46:45.033Z,22.59
2023-05-24T13:49:13.008Z,22.71
2023-05-24T13:51:40.550Z,22.74
2023-05-24T13:54:08.440Z,22.74
2023-05-24T13:56:36.789Z,22.76
2023-05-24T13:59:04.908Z,22.74
2023-05-24T14:01:33.715Z,22.51
2023-05-24T14:04:02.532Z,22.77
2023-05-24T14:06:29.954Z,22.78
2023-05-24T14:08:57.310Z,22.77
2023-05-24T14:11:25.625Z,22.78
2023-05-24T14:16:24.417Z,22.72
2023-05-24T14:18:51.915Z,22.80
2023-05-24T14:21:19.808Z,22.73
2023-05-24T14:23:46.965Z,22.78
2023-05-24T14:26:14.486Z,22.76
2023-05-24T14:28:41.596Z,22.76
2023-05-24T14:31:08.827Z,22.77
2023-05-24T14:33:36.085Z,22.70
2023-05-24T14:36:03.230Z,22.73
2023-05-24T14:38:30.497Z,22.73
2023-05-24T14:40:58.843Z,22.73
2023-05-24T14:43:26.359Z,22.65
2023-05-24T14:45:53.830Z,22.68
2023-05-24T14:48:20.990Z,22.65
2023-05-24T14:50:48.100Z,22.64
2023-05-24T14:53:15.183Z,22.63
2023-05-24T14:55:43.896Z,22.65
2023-05-24T14:58:12.331Z,22.60
2023-05-24T15:00:41.128Z,22.52
2023-05-24T15:03:09.112Z,22.65
2023-05-24T15:05:36.808Z,22.61
2023-05-24T15:08:05.703Z,22.68
2023-05-24T15:10:33.465Z,22.69
2023-05-24T15:13:01.653Z,22.63
2023-05-24T15:15:29.312Z,22.43
2023-05-24T15:17:59.659Z,22.65
2023-05-24T15:20:27.200Z,22.67
2023-05-24T15:22:54.281Z,22.54
2023-05-24T15:25:21.580Z,22.63
2023-05-24T15:27:49.280Z,22.55
2023-05-24T15:30:17.628Z,22.58
2023-05-24T15:32:46.588Z,22.56
2023-05-24T15:35:14.397Z,22.55
2023-05-24T15:37:42.960Z,22.51
2023-05-24T15:40:11.206Z,22.53
2023-05-24T15:42:38.296Z,22.40
2023-05-24T15:45:05.850Z,22.44
2023-05-24T15:47:38.180Z,22.45
2023-05-24T15:50:07.874Z,22.45
2023-05-24T15:52:35.661Z,22.43
2023-05-24T15:55:02.767Z,22.41
2023-05-24T15:57:31.541Z,22.38
2023-05-24T15:59:58.712Z,22.37
2023-05-24T16:02:25.995Z,22.35
2023-05-24T16:04:53.325Z,22.34
2023-05-24T16:07:20.519Z,22.27
2023-05-24T16:09:50.231Z,22.30
2023-05-24T16:12:17.969Z,22.26
2023-05-24T16:14:45.275Z,22.25
2023-05-24T16:17:13.543Z,22.14
2023-05-24T16:19:41.367Z,22.20
2023-05-24T16:22:08.707Z,22.18
2023-05-24T16:24:35.758Z,22.14
2023-05-24T16:27:02.908Z,22.04
2023-05-24T16:29:30.414Z,22.10
2023-05-24T16:31:57.713Z,22.08
2023-05-24T16:34:25.214Z,22.04
2023-05-24T16:36:52.434Z,22.01
2023-05-24T16:39:19.543Z,21.98
2023-05-24T16:41:47.132Z,22.02
2023-05-24T16:44:18.013Z,21.86
2023-05-24T16:46:46.256Z,21.96
2023-05-24T16:49:13.706Z,21.91
2023-05-24T16:51:40.941Z,21.89
2023-05-24T16:54:09.216Z,21.83
2023-05-24T16:56:37.984Z,21.78
2023-05-24T16:59:05.820Z,21.80
2023-05-24T17:01:33.220Z,21.76
2023-05-24T17:04:00.729Z,21.73
2023-05-24T17:06:28.043Z,21.72
2023-05-24T17:08:55.157Z,21.61
2023-05-24T17:11:23.278Z,21.65
2023-05-24T17:13:51.627Z,21.60
2023-05-24T17:16:19.002Z,21.60
2023-05-24T17:18:46.409Z,21.58
2023-05-24T17:21:13.885Z,21.54
2023-05-24T17:23:40.936Z,21.53
2023-05-24T17:26:08.302Z,21.50
2023-05-24T17:28:36.528Z,21.52
2023-05-24T17:31:04.237Z,21.38
2023-05-24T17:33:32.404Z,21.47
2023-05-24T17:36:04.426Z,21.47
2023-05-24T17:38:37.623Z,21.45
2023-05-24T17:41:07.855Z,21.33
2023-05-24T17:43:36.867Z,21.40
2023-05-24T17:46:06.723Z,21.37
2023-05-24T17:48:36.898Z,21.20
2023-05-24T17:51:08.662Z,21.15
2023-05-24T17:53:38.189Z,21.21
2023-05-24T17:56:06.628Z,21.18
2023-05-24T17:58:36.895Z,21.16
2023-05-24T18:01:07.248Z,21.12
2023-05-24T18:03:37.309Z,21.09
2023-05-24T18:06:07.013Z,21.06
2023-05-24T18:08:37.320Z,21.00
2023-05-24T18:11:08.653Z,21.05
2023-05-24T18:13:37.739Z,21.00
2023-05-24T18:16:06.055Z,20.97
2023-05-24T18:18:33.261Z,20.99
2023-05-24T18:21:00.422Z,20.92
2023-05-24T18:23:27.559Z,20.95
2023-05-24T18:26:00.600Z,20.98
2023-05-24T18:28:30.435Z,20.97
2023-05-24T18:30:57.550Z,20.96
2023-05-24T18:33:24.790Z,20.92
2023-05-24T18:35:52.040Z,20.48
2023-05-24T18:38:19.100Z,20.74
2023-05-24T18:40:46.259Z,20.76
2023-05-24T18:43:13.357Z,20.72
2023-05-24T18:45:40.600Z,20.74
2023-05-24T18:48:08.183Z,20.78
2023-05-24T18:50:35.335Z,20.62
2023-05-24T18:53:02.422Z,20.75
2023-05-24T18:55:29.523Z,20.66
2023-05-24T18:57:56.688Z,20.73
2023-05-24T19:00:24.631Z,20.64
2023-05-24T19:02:52.174Z,20.61
2023-05-24T19:05:20.114Z,20.63
2023-05-24T19:07:47.292Z,20.67
2023-05-24T19:10:14.433Z,20.66
2023-05-24T19:12:41.599Z,20.64
2023-05-24T19:15:09.211Z,20.58
2023-05-24T19:17:36.344Z,20.58
2023-05-24T19:20:04.126Z,20.49
2023-05-24T19:22:33.991Z,20.44
2023-05-24T19:25:01.575Z,20.42
2023-05-24T19:27:31.709Z,20.41
2023-05-24T19:30:00.261Z,20.38
2023-05-24T19:32:28.028Z,20.21
2023-05-24T19:34:55.306Z,20.25
2023-05-24T19:37:22.704Z,20.26
2023-05-24T19:39:51.498Z,19.52
2023-05-24T19:42:18.823Z,20.16
2023-05-24T19:44:45.997Z,20.12
2023-05-24T19:47:13.216Z,20.16
2023-05-24T19:49:40.369Z,20.08
2023-05-24T19:52:07.574Z,20.05
2023-05-24T19:54:34.716Z,19.95
2023-05-24T19:57:02.610Z,19.98
2023-05-24T19:59:29.860Z,19.89
2023-05-24T20:01:56.958Z,19.81
2023-05-24T20:04:24.214Z,19.79
2023-05-24T20:06:53.468Z,19.70
2023-05-24T20:09:20.698Z,19.70
2023-05-24T20:11:47.861Z,19.80
2023-05-24T20:14:15.095Z,19.71
2023-05-24T20:16:42.266Z,19.66
2023-05-24T20:19:10.650Z,19.59
2023-05-24T20:21:37.955Z,19.59
2023-05-24T20:24:05.540Z,19.46
2023-05-24T20:26:33.550Z,19.55
2023-05-24T20:29:01.111Z,19.49
2023-05-24T20:31:28.300Z,19.41
2023-05-24T20:33:55.443Z,19.39
2023-05-24T20:36:22.524Z,19.37
2023-05-24T20:38:50.362Z,19.34
2023-05-24T20:41:18.127Z,19.28
2023-05-24T20:43:45.252Z,19.33
2023-05-24T20:46:14.075Z,19.19
2023-05-24T20:48:42.254Z,19.30
2023-05-24T20:51:09.974Z,19.23
2023-05-24T20:53:37.804Z,19.25
2023-05-24T20:56:04.954Z,19.24
2023-05-24T20:58:32.114Z,19.24
2023-05-24T21:00:59.336Z,19.21
2023-05-24T21:03:26.536Z,19.26
2023-05-24T21:05:53.693Z,19.24
2023-05-24T21:08:20.935Z,19.19
2023-05-24T21:10:48.042Z,19.21
2023-05-24T21:13:15.287Z,19.18
2023-05-24T21:15:44.712Z,19.13
2023-05-24T21:18:13.078Z,19.11
2023-05-24T21:20:40.639Z,19.14
2023-05-24T21:23:07.881Z,19.04
2023-05-24T21:25:35.098Z,19.13
2023-05-24T21:28:02.257Z,19.09
2023-05-24T21:30:30.655Z,19.07
2023-05-24T21:32:57.935Z,19.01
2023-05-24T21:35:25.159Z,19.08
2023-05-24T21:37:52.770Z,19.07
2023-05-24T21:40:19.897Z,19.06
2023-05-24T21:42:47.470Z,19.05
2023-05-24T21:45:14.641Z,18.97
2023-05-24T21:47:42.870Z,18.95
2023-05-24T21:50:10.371Z,18.97
2023-05-24T21:52:37.585Z,18.90
2023-05-24T21:55:05.589Z,18.81
2023-05-24T21:57:32.870Z,18.84
2023-05-24T22:00:00.129Z,18.84
2023-05-24T22:02:27.499Z,18.73
2023-05-24T22:04:54.893Z,18.67
2023-05-24T22:07:22.077Z,18.66
2023-05-24T22:09:49.215Z,18.65
2023-05-24T22:12:16.514Z,18.48
2023-05-24T22:14:43.627Z,18.71
2023-05-24T22:17:11.446Z,18.78
2023-05-24T22:19:41.420Z,18.78
2023-05-24T22:22:10.005Z,18.78
2023-05-24T22:24:37.163Z,18.72
2023-05-24T22:27:04.898Z,18.68
2023-05-24T22:29:31.971Z,18.69
2023-05-24T22:31:59.084Z,18.70
2023-05-24T22:34:29.264Z,18.36
2023-05-24T22:36:57.734Z,18.66
2023-05-24T22:39:25.296Z,18.65
2023-05-24T22:41:52.974Z,18.63
2023-05-24T22:44:20.337Z,18.24
2023-05-24T22:46:49.925Z,18.41
2023-05-24T22:49:20.097Z,18.24
2023-05-24T22:51:48.848Z,18.30
2023-05-24T22:54:16.404Z,17.94
2023-05-24T22:56:44.159Z,18.37
2023-05-24T22:59:11.596Z,18.41
2023-05-24T23:01:39.068Z,18.41
2023-05-24T23:04:19.831Z,18.33
2023-05-24T23:06:53.233Z,18.37
2023-05-24T23:09:41.700Z,18.33
2023-05-24T23:12:09.337Z,18.29
2023-05-24T23:14:41.909Z,18.23
2023-05-24T23:17:15.810Z,18.22
2023-05-24T23:19:43.445Z,18.12
2023-05-24T23:22:23.802Z,17.99
2023-05-24T23:24:51.299Z,18.05
2023-05-24T23:27:18.630Z,18.01
2023-05-24T23:29:45.752Z,18.00
2023-05-24T23:32:12.979Z,17.98
2023-05-24T23:34:40.040Z,17.93
2023-05-24T23:37:07.725Z,17.89
2023-05-24T23:39:34.911Z,17.81
2023-05-24T23:42:02.680Z,17.73
2023-05-24T23:44:29.891Z,17.58
2023-05-24T23:46:57.405Z,17.39
2023-05-24T23:49:25.886Z,17.62
2023-05-24T23:51:53.000Z,17.70
2023-05-24T23:54:20.335Z,17.69
2023-05-24T23:56:47.607Z,17.69
2023-05-24T23:59:17.045Z,17.64
